Toyofukumaru — JD2177 — position and weather

sailwx.info

Track history (hours):
 
Tides and Currents Weather Stations Pressure Air Temp Water Temp Dewpoint Dewpoint Depression Visibility Wind Speed Wind Dir Waves Ship Positions

Toyofukumaru

Last reported at 2016-Apr-29 07:34 UTC. Time now 2016-Apr-30 18:51 UTC.
Position N 34°59' E 139°31'.

Length 165 m; draft 6.2 m.

Type: Cargo ship. MMSI: 431200688.

Date/timePositionNaut miles runAvg speedWind from/ knotsBaromVisibWave heightAir tempDewpointWater temp
2016-Apr-29 07:34N 34°59' E 139°31'1818.4
2016-Apr-29 06:33N 35°12' E 139°46'1312.5
2016-Apr-29 05:33N 35°24' E 139°39'0 0.3
2016-Apr-29 04:31N 35°23' E 139°39'0 0.0
2016-Apr-29 03:31N 35°23' E 139°39'0 0.0
2016-Apr-29 02:31N 35°23' E 139°39'0 0.0
2016-Apr-29 01:31N 35°23' E 139°39'0 0.0
2016-Apr-29 00:31N 35°23' E 139°39'0 0.4
2016-Apr-28 23:34N 35°24' E 139°39'1110.8
2016-Apr-28 22:33N 35°15' E 139°47'1616.4
2016-Apr-28 21:33N 34°59' E 139°43'1515.0
2016-Apr-28 20:33N 34°53' E 139°60'1919.0
2016-Apr-28 19:33N 35°04' E 140°19'1817.8
2016-Apr-28 18:33N 35°15' E 140°36'1818.5
2016-Apr-28 17:33N 35°31' E 140°48'1818.0
2016-Apr-28 16:33N 35°47' E 140°57'55 2.3
2016-Apr-27 16:28N 36°43' E 141°02'1719.0
2016-Apr-27 15:34N 36°26' E 141°00'2319.0
2016-Apr-27 14:22N 36°03' E 140°57'1519.1
2016-Apr-27 13:34N 35°48' E 140°55'1918.8
2016-Apr-27 12:34N 35°30' E 140°48'2020.5
2016-Apr-27 11:34N 35°13' E 140°34'2120.5
2016-Apr-27 10:33N 35°01' E 140°14'2119.0
2016-Apr-27 09:28N 34°52' E 139°51'1516.3
2016-Apr-27 08:34N 35°05' E 139°45'1313.1
2016-Apr-27 07:33N 35°18' E 139°44'1111.3
2016-Apr-27 06:33N 35°29' E 139°48'2 2.1
2016-Apr-27 05:32N 35°30' E 139°45'0 0.0
2016-Apr-27 04:32N 35°30' E 139°45'0 0.0
2016-Apr-27 03:32N 35°30' E 139°45'0 0.0
2016-Apr-27 02:32N 35°30' E 139°45'2 2.1
2016-Apr-27 01:33N 35°29' E 139°43'7 6.9
2016-Apr-27 00:33N 35°23' E 139°39'0 0.0
2016-Apr-26 23:33N 35°23' E 139°39'0 0.0
2016-Apr-26 22:33N 35°23' E 139°39'4 4.5
2016-Apr-26 21:34N 35°22' E 139°44'0 0.1
2016-Apr-26 20:32N 35°22' E 139°44'0 0.0
2016-Apr-26 19:29N 35°22' E 139°44'0 0.0
2016-Apr-26 18:32N 35°22' E 139°44'0 0.0
2016-Apr-26 17:32N 35°21' E 139°44'9 9.4
2016-Apr-26 16:33N 35°13' E 139°47'1817.8
2016-Apr-26 15:33N 34°59' E 139°34'2019.8
2016-Apr-26 14:33N 34°46' E 139°15'2019.9
2016-Apr-26 13:32N 34°32' E 138°58'  
2016-Apr-21 11:27N 34°57' E 139°29'1718.7
2016-Apr-21 10:33N 35°09' E 139°44'1212.2
2016-Apr-21 09:33N 35°21' E 139°42'4 3.8
2016-Apr-21 08:33N 35°23' E 139°39'0 0.0
2016-Apr-21 07:33N 35°23' E 139°39'0 0.0
2016-Apr-21 06:33N 35°23' E 139°39'0 0.0
2016-Apr-21 05:33N 35°23' E 139°39'0 0.0
2016-Apr-21 04:33N 35°23' E 139°39'0 0.0
2016-Apr-21 03:33N 35°23' E 139°39'0 0.5
2016-Apr-21 02:33N 35°24' E 139°39'1211.8
2016-Apr-21 01:33N 35°13' E 139°47'1918.6
2016-Apr-21 00:33N 34°55' E 139°43'1313.0
2016-Apr-20 23:33N 34°52' E 139°58'1515.4
2016-Apr-20 22:33N 35°02' E 140°13'1413.2
2016-Apr-20 21:29N 35°09' E 140°28'1513.9
2016-Apr-20 20:23N 35°21' E 140°41'1416.6
2016-Apr-20 19:33N 35°32' E 140°50'1818.1
2016-Apr-20 18:33N 35°49' E 140°59'  
Track history (hours):
 
Tides and Currents Weather Stations Pressure Air Temp Water Temp Dewpoint Dewpoint Depression Visibility Wind Speed Wind Dir Waves Ship Positions

Toyofukumaru

Last reported at 2016-Apr-29 07:34 UTC. Time now 2016-Apr-30 18:51 UTC.
Position N 34°59' E 139°31'.

Length 165 m; draft 6.2 m.

Type: Cargo ship. MMSI: 431200688.

Date/timePositionNaut miles runAvg speedWind from/ knotsBaromVisibWave heightAir tempDewpointWater temp
2016-Apr-29 07:34N 34°59' E 139°31'1818.4
2016-Apr-29 06:33N 35°12' E 139°46'1312.5
2016-Apr-29 05:33N 35°24' E 139°39'0 0.3
2016-Apr-29 04:31N 35°23' E 139°39'0 0.0
2016-Apr-29 03:31N 35°23' E 139°39'0 0.0
2016-Apr-29 02:31N 35°23' E 139°39'0 0.0
2016-Apr-29 01:31N 35°23' E 139°39'0 0.0
2016-Apr-29 00:31N 35°23' E 139°39'0 0.4
2016-Apr-28 23:34N 35°24' E 139°39'1110.8
2016-Apr-28 22:33N 35°15' E 139°47'1616.4
2016-Apr-28 21:33N 34°59' E 139°43'1515.0
2016-Apr-28 20:33N 34°53' E 139°60'1919.0
2016-Apr-28 19:33N 35°04' E 140°19'1817.8
2016-Apr-28 18:33N 35°15' E 140°36'1818.5
2016-Apr-28 17:33N 35°31' E 140°48'1818.0
2016-Apr-28 16:33N 35°47' E 140°57'55 2.3
2016-Apr-27 16:28N 36°43' E 141°02'1719.0
2016-Apr-27 15:34N 36°26' E 141°00'2319.0
2016-Apr-27 14:22N 36°03' E 140°57'1519.1
2016-Apr-27 13:34N 35°48' E 140°55'1918.8
2016-Apr-27 12:34N 35°30' E 140°48'2020.5
2016-Apr-27 11:34N 35°13' E 140°34'2120.5
2016-Apr-27 10:33N 35°01' E 140°14'2119.0
2016-Apr-27 09:28N 34°52' E 139°51'1516.3
2016-Apr-27 08:34N 35°05' E 139°45'1313.1
2016-Apr-27 07:33N 35°18' E 139°44'1111.3
2016-Apr-27 06:33N 35°29' E 139°48'2 2.1
2016-Apr-27 05:32N 35°30' E 139°45'0 0.0
2016-Apr-27 04:32N 35°30' E 139°45'0 0.0
2016-Apr-27 03:32N 35°30' E 139°45'0 0.0
2016-Apr-27 02:32N 35°30' E 139°45'2 2.1
2016-Apr-27 01:33N 35°29' E 139°43'7 6.9
2016-Apr-27 00:33N 35°23' E 139°39'0 0.0
2016-Apr-26 23:33N 35°23' E 139°39'0 0.0
2016-Apr-26 22:33N 35°23' E 139°39'4 4.5
2016-Apr-26 21:34N 35°22' E 139°44'0 0.1
2016-Apr-26 20:32N 35°22' E 139°44'0 0.0
2016-Apr-26 19:29N 35°22' E 139°44'0 0.0
2016-Apr-26 18:32N 35°22' E 139°44'0 0.0
2016-Apr-26 17:32N 35°21' E 139°44'9 9.4
2016-Apr-26 16:33N 35°13' E 139°47'1817.8
2016-Apr-26 15:33N 34°59' E 139°34'2019.8
2016-Apr-26 14:33N 34°46' E 139°15'2019.9
2016-Apr-26 13:32N 34°32' E 138°58'  
2016-Apr-21 11:27N 34°57' E 139°29'1718.7
2016-Apr-21 10:33N 35°09' E 139°44'1212.2
2016-Apr-21 09:33N 35°21' E 139°42'4 3.8
2016-Apr-21 08:33N 35°23' E 139°39'0 0.0
2016-Apr-21 07:33N 35°23' E 139°39'0 0.0
2016-Apr-21 06:33N 35°23' E 139°39'0 0.0
2016-Apr-21 05:33N 35°23' E 139°39'0 0.0
2016-Apr-21 04:33N 35°23' E 139°39'0 0.0
2016-Apr-21 03:33N 35°23' E 139°39'0 0.5
2016-Apr-21 02:33N 35°24' E 139°39'1211.8
2016-Apr-21 01:33N 35°13' E 139°47'1918.6
2016-Apr-21 00:33N 34°55' E 139°43'1313.0
2016-Apr-20 23:33N 34°52' E 139°58'1515.4
2016-Apr-20 22:33N 35°02' E 140°13'1413.2
2016-Apr-20 21:29N 35°09' E 140°28'1513.9
2016-Apr-20 20:23N 35°21' E 140°41'1416.6
2016-Apr-20 19:33N 35°32' E 140°50'1818.1
2016-Apr-20 18:33N 35°49' E 140°59'  

Dump ship's entire track history